createdAt,value
2023-05-18T00:01:20.891Z,12.56
2023-05-18T00:03:48.649Z,12.57
2023-05-18T00:06:19.463Z,12.58
2023-05-18T00:08:46.832Z,12.59
2023-05-18T00:11:14.297Z,12.59
2023-05-18T00:13:42.033Z,12.57
2023-05-18T00:16:09.194Z,12.52
2023-05-18T00:18:37.170Z,12.49
2023-05-18T00:21:04.852Z,12.52
2023-05-18T00:23:32.092Z,12.57
2023-05-18T00:26:00.115Z,12.58
2023-05-18T00:28:27.365Z,12.54
2023-05-18T00:30:54.860Z,12.46
2023-05-18T00:33:22.739Z,12.42
2023-05-18T00:35:50.824Z,12.41
2023-05-18T00:38:18.235Z,12.41
2023-05-18T00:40:45.529Z,12.40
2023-05-18T00:43:12.802Z,12.40
2023-05-18T00:45:39.989Z,12.34
2023-05-18T00:48:07.488Z,12.28
2023-05-18T00:50:35.203Z,12.27
2023-05-18T00:53:02.373Z,12.29
2023-05-18T00:55:29.857Z,12.30
2023-05-18T00:57:57.329Z,12.28
2023-05-18T01:00:24.648Z,12.26
2023-05-18T01:02:53.178Z,12.20
2023-05-18T01:05:22.566Z,12.16
2023-05-18T01:07:50.739Z,12.18
2023-05-18T01:10:23.565Z,12.22
2023-05-18T01:12:57.676Z,12.25
2023-05-18T01:15:34.066Z,12.21
2023-05-18T01:18:10.625Z,12.15
2023-05-18T01:20:46.616Z,12.13
2023-05-18T01:23:45.288Z,12.13
2023-05-18T01:26:25.527Z,12.12
2023-05-18T01:28:53.715Z,12.06
2023-05-18T01:31:21.986Z,12.01
2023-05-18T01:33:49.201Z,11.98
2023-05-18T01:36:18.498Z,12.01
2023-05-18T01:38:46.407Z,12.02
2023-05-18T01:41:21.639Z,12.01
2023-05-18T01:43:54.470Z,11.97
2023-05-18T01:46:26.493Z,11.92
2023-05-18T01:49:00.668Z,11.93
2023-05-18T01:51:31.687Z,12.00
2023-05-18T01:54:08.070Z,12.06
2023-05-18T01:56:38.260Z,12.14
2023-05-18T01:59:06.388Z,12.23
2023-05-18T02:01:34.068Z,12.29
2023-05-18T02:04:01.377Z,12.37
2023-05-18T02:06:28.962Z,12.46
2023-05-18T02:08:56.273Z,12.59
2023-05-18T02:11:23.339Z,12.71
2023-05-18T02:13:51.163Z,12.79
2023-05-18T02:16:18.459Z,12.86
2023-05-18T02:18:45.918Z,12.91
2023-05-18T02:21:14.489Z,12.96
2023-05-18T02:23:42.163Z,13.06
2023-05-18T02:26:09.218Z,13.19
2023-05-18T02:28:40.271Z,13.30
2023-05-18T02:31:12.155Z,13.40
2023-05-18T02:33:42.627Z,13.46
2023-05-18T02:36:12.627Z,13.53
2023-05-18T02:38:40.876Z,13.59
2023-05-18T02:41:08.852Z,13.64
2023-05-18T02:43:36.606Z,13.72
2023-05-18T02:46:06.989Z,13.82
2023-05-18T02:48:34.465Z,13.91
2023-05-18T02:51:03.771Z,13.97
2023-05-18T02:53:32.636Z,14.01
2023-05-18T02:56:04.123Z,14.04
2023-05-18T02:58:59.143Z,14.06
2023-05-18T03:01:38.694Z,14.12
2023-05-18T03:04:05.985Z,14.22
2023-05-18T03:06:33.335Z,14.32
2023-05-18T03:09:00.795Z,14.39
2023-05-18T03:11:41.251Z,14.45
2023-05-18T03:14:09.021Z,14.50
2023-05-18T03:16:39.140Z,14.53
2023-05-18T03:19:11.153Z,14.55
2023-05-18T03:21:40.405Z,14.59
2023-05-18T03:24:07.661Z,14.65
2023-05-18T03:26:40.091Z,14.71
2023-05-18T03:29:07.446Z,14.77
2023-05-18T03:31:34.886Z,14.85
2023-05-18T03:34:02.774Z,14.95
2023-05-18T03:36:29.862Z,15.05
2023-05-18T03:38:57.077Z,15.19
2023-05-18T03:41:24.530Z,15.35
2023-05-18T03:43:53.035Z,15.50
2023-05-18T03:46:20.313Z,15.62
2023-05-18T03:48:47.529Z,15.67
2023-05-18T03:51:16.469Z,15.72
2023-05-18T03:53:43.767Z,15.83
2023-05-18T03:56:10.915Z,16.02
2023-05-18T03:58:38.384Z,16.19
2023-05-18T04:01:05.715Z,16.32
2023-05-18T04:03:35.924Z,16.40
2023-05-18T04:06:03.190Z,16.51
2023-05-18T04:08:30.955Z,16.61
2023-05-18T04:10:59.168Z,16.71
2023-05-18T04:13:26.490Z,16.80
2023-05-18T04:15:54.717Z,16.91
2023-05-18T04:18:22.833Z,17.05
2023-05-18T04:20:50.331Z,17.21
2023-05-18T04:23:18.160Z,17.34
2023-05-18T04:25:46.332Z,17.41
2023-05-18T04:28:13.381Z,17.47
2023-05-18T04:30:40.968Z,17.55
2023-05-18T04:33:10.317Z,17.62
2023-05-18T04:35:39.884Z,17.67
2023-05-18T04:38:07.460Z,17.71
2023-05-18T04:40:39.933Z,17.77
2023-05-18T04:43:10.866Z,17.81
2023-05-18T04:45:38.885Z,17.86
2023-05-18T04:48:06.873Z,17.91
2023-05-18T04:50:34.058Z,17.95
2023-05-18T04:53:02.740Z,17.98
2023-05-18T04:55:31.533Z,18.04
2023-05-18T04:58:07.477Z,18.09
2023-05-18T05:00:34.841Z,18.17
2023-05-18T05:03:02.334Z,18.25
2023-05-18T05:05:30.392Z,18.30
2023-05-18T05:07:59.011Z,18.35
2023-05-18T05:10:26.237Z,18.41
2023-05-18T05:12:54.369Z,18.51
2023-05-18T05:15:21.527Z,18.64
2023-05-18T05:17:50.790Z,18.78
2023-05-18T05:20:19.401Z,18.87
2023-05-18T05:22:47.559Z,18.89
2023-05-18T05:25:17.489Z,18.87
2023-05-18T05:27:45.105Z,18.83
2023-05-18T05:30:13.029Z,18.82
2023-05-18T05:32:42.152Z,18.88
2023-05-18T05:35:09.881Z,18.96
2023-05-18T05:37:37.245Z,19.08
2023-05-18T05:40:06.807Z,19.23
2023-05-18T05:42:42.189Z,19.35
2023-05-18T05:45:09.962Z,19.46
2023-05-18T05:47:44.925Z,19.58
2023-05-18T05:50:13.034Z,19.71
2023-05-18T05:52:40.625Z,19.88
2023-05-18T05:55:08.185Z,20.04
2023-05-18T05:57:36.359Z,20.20
2023-05-18T06:00:05.053Z,20.36
2023-05-18T06:02:49.020Z,20.55
2023-05-18T06:05:21.196Z,20.75
2023-05-18T06:07:48.583Z,20.94
2023-05-18T06:10:15.972Z,21.13
2023-05-18T06:12:43.425Z,21.32
2023-05-18T06:15:11.402Z,21.48
2023-05-18T06:17:40.696Z,21.61
2023-05-18T06:20:08.972Z,21.72
2023-05-18T06:22:36.864Z,21.82
2023-05-18T06:25:36.377Z,21.85
2023-05-18T06:28:22.853Z,21.83
2023-05-18T06:30:56.148Z,21.88
2023-05-18T06:33:52.177Z,21.92
2023-05-18T06:36:19.735Z,21.95
2023-05-18T06:38:46.989Z,21.97
2023-05-18T06:41:16.347Z,22.06
2023-05-18T06:43:43.738Z,22.13
2023-05-18T06:46:23.714Z,22.15
2023-05-18T06:48:54.735Z,22.22
2023-05-18T06:51:22.307Z,22.28
2023-05-18T06:53:50.779Z,22.33
2023-05-18T06:56:19.032Z,22.43
2023-05-18T06:58:49.958Z,22.57
2023-05-18T07:01:20.848Z,22.77
2023-05-18T07:03:48.326Z,22.99
2023-05-18T07:06:15.699Z,23.11
2023-05-18T07:08:44.441Z,23.23
2023-05-18T07:11:11.584Z,23.35
2023-05-18T07:13:38.686Z,23.48
2023-05-18T07:16:06.740Z,23.58
2023-05-18T07:18:34.521Z,23.71
2023-05-18T07:21:01.620Z,23.89
2023-05-18T07:23:29.284Z,24.05
2023-05-18T07:25:57.815Z,24.16
2023-05-18T07:28:24.862Z,24.17
2023-05-18T07:30:51.925Z,24.10
2023-05-18T07:33:19.266Z,24.06
2023-05-18T07:35:46.472Z,24.03
2023-05-18T07:39:50.593Z,24.03
2023-05-18T07:42:17.740Z,24.01
2023-05-18T07:44:45.813Z,23.99
2023-05-18T07:47:13.165Z,23.99
2023-05-18T07:49:40.422Z,24.09
2023-05-18T07:52:08.697Z,24.19
2023-05-18T07:54:36.077Z,24.28
2023-05-18T07:57:04.366Z,24.41
2023-05-18T07:59:31.487Z,24.53
2023-05-18T08:02:00.369Z,24.64
2023-05-18T08:04:27.632Z,24.79
2023-05-18T08:06:55.705Z,24.89
2023-05-18T08:09:24.640Z,24.95
2023-05-18T08:11:53.683Z,25.07
2023-05-18T08:14:21.143Z,25.21
2023-05-18T08:16:48.316Z,25.37
2023-05-18T08:19:15.401Z,25.48
2023-05-18T08:21:42.592Z,25.57
2023-05-18T08:24:10.046Z,25.66
2023-05-18T08:26:37.352Z,25.77
2023-05-18T08:29:11.345Z,25.92
2023-05-18T08:31:39.346Z,26.11
2023-05-18T08:34:06.890Z,26.30
2023-05-18T08:36:34.744Z,26.50
2023-05-18T08:39:03.136Z,26.78
2023-05-18T08:41:31.617Z,27.10
2023-05-18T08:44:24.796Z,27.29
2023-05-18T08:46:52.419Z,27.47
2023-05-18T08:49:21.036Z,27.58
2023-05-18T08:51:58.218Z,27.74
2023-05-18T08:54:25.366Z,27.68
2023-05-18T08:56:53.329Z,27.59
2023-05-18T08:59:24.541Z,27.64
2023-05-18T09:01:52.393Z,27.65
2023-05-18T09:04:20.038Z,27.77
2023-05-18T09:06:52.173Z,27.87
2023-05-18T09:09:20.373Z,27.91
2023-05-18T09:11:47.916Z,27.98
2023-05-18T09:14:15.253Z,28.17
2023-05-18T09:16:42.321Z,28.20
2023-05-18T09:19:10.160Z,28.20
2023-05-18T09:21:37.339Z,28.23
2023-05-18T09:24:04.736Z,28.38
2023-05-18T09:26:31.942Z,28.71
2023-05-18T09:28:59.887Z,28.90
2023-05-18T09:31:27.979Z,29.16
2023-05-18T09:33:55.308Z,29.25
2023-05-18T09:36:26.528Z,29.25
2023-05-18T09:38:53.886Z,29.33
2023-05-18T09:41:22.205Z,29.44
2023-05-18T09:43:49.666Z,29.58
2023-05-18T09:46:18.022Z,29.65
2023-05-18T09:48:51.501Z,29.64
2023-05-18T09:51:18.967Z,29.72
2023-05-18T09:53:59.191Z,29.82
2023-05-18T09:56:27.300Z,29.84
2023-05-18T09:58:55.481Z,29.81
2023-05-18T10:01:23.500Z,29.89
2023-05-18T10:03:50.919Z,30.07
2023-05-18T10:06:20.388Z,30.29
2023-05-18T10:09:07.710Z,30.51
2023-05-18T10:11:35.454Z,30.82
2023-05-18T10:14:02.608Z,30.90
2023-05-18T10:16:29.816Z,30.72
2023-05-18T10:18:57.493Z,30.50
2023-05-18T10:21:25.022Z,30.44
2023-05-18T10:23:52.543Z,30.56
2023-05-18T10:26:20.407Z,30.82
2023-05-18T10:28:48.481Z,30.99
2023-05-18T10:31:17.183Z,31.15
2023-05-18T10:33:44.784Z,31.23
2023-05-18T10:36:12.122Z,31.14
2023-05-18T10:38:43.746Z,30.92
2023-05-18T10:41:10.806Z,31.02
2023-05-18T10:43:38.146Z,31.12
2023-05-18T10:46:05.709Z,31.21
2023-05-18T10:48:33.032Z,31.35
2023-05-18T10:51:00.457Z,31.42
2023-05-18T10:53:29.657Z,31.48
2023-05-18T10:55:57.212Z,31.65
2023-05-18T10:58:26.348Z,31.93
2023-05-18T11:00:59.287Z,32.12
2023-05-18T11:03:27.363Z,32.39
2023-05-18T11:06:11.190Z,32.62
2023-05-18T11:08:47.828Z,32.60
2023-05-18T11:11:17.236Z,32.54
2023-05-18T11:13:48.838Z,32.31
2023-05-18T11:16:23.173Z,32.23
2023-05-18T11:18:53.541Z,32.45
2023-05-18T11:21:36.646Z,32.70
2023-05-18T11:24:23.815Z,32.73
2023-05-18T11:27:04.226Z,32.58
2023-05-18T11:29:36.076Z,32.36
2023-05-18T11:44:40.450Z,32.61
2023-05-18T11:47:11.638Z,32.82
2023-05-18T11:49:45.608Z,32.97
2023-05-18T11:52:20.953Z,33.05
2023-05-18T11:54:58.779Z,33.13
2023-05-18T11:57:35.524Z,33.23
2023-05-18T12:00:08.102Z,33.33
2023-05-18T12:02:47.333Z,33.32
2023-05-18T12:05:15.886Z,33.42
2023-05-18T12:07:43.132Z,33.44
2023-05-18T12:10:12.062Z,33.35
2023-05-18T12:12:42.116Z,33.40
2023-05-18T12:15:12.065Z,33.30
2023-05-18T12:17:50.263Z,33.19
2023-05-18T12:20:18.841Z,33.22
2023-05-18T12:22:47.594Z,33.36
2023-05-18T12:25:15.059Z,33.45
2023-05-18T12:27:48.013Z,33.41
2023-05-18T12:30:18.681Z,33.39
2023-05-18T12:32:47.041Z,33.49
2023-05-18T12:35:14.383Z,33.55
2023-05-18T12:37:47.842Z,33.69
2023-05-18T12:40:17.252Z,33.95
2023-05-18T12:42:58.456Z,34.13
2023-05-18T12:45:33.669Z,34.02
2023-05-18T12:48:06.034Z,33.91
2023-05-18T12:50:33.341Z,33.97
2023-05-18T12:53:02.032Z,34.17
2023-05-18T12:55:31.341Z,34.17
2023-05-18T12:58:06.393Z,34.07
2023-05-18T13:00:37.326Z,34.09
2023-05-18T13:03:15.022Z,34.27
2023-05-18T13:05:45.050Z,34.40
2023-05-18T13:08:18.177Z,34.47
2023-05-18T13:10:45.805Z,34.55
2023-05-18T13:13:15.698Z,34.50
2023-05-18T13:15:43.345Z,34.46
2023-05-18T13:18:11.558Z,34.47
2023-05-18T13:20:43.691Z,34.59
2023-05-18T13:23:12.729Z,34.59
2023-05-18T13:25:40.581Z,34.50
2023-05-18T13:28:10.677Z,34.36
2023-05-18T13:30:38.680Z,34.41
2023-05-18T13:33:08.440Z,34.45
2023-05-18T13:35:40.514Z,34.35
2023-05-18T13:38:11.555Z,34.21
2023-05-18T13:40:38.727Z,34.10
2023-05-18T13:43:10.954Z,34.11
2023-05-18T13:45:40.048Z,34.25
2023-05-18T13:48:10.107Z,34.46
2023-05-18T13:50:39.470Z,34.55
2023-05-18T13:53:07.102Z,34.53
2023-05-18T13:55:37.390Z,34.59
2023-05-18T13:58:04.734Z,34.70
2023-05-18T14:00:34.509Z,34.89
2023-05-18T14:03:02.163Z,35.08
2023-05-18T14:05:29.771Z,35.23
2023-05-18T14:07:58.149Z,35.27
2023-05-18T14:10:25.512Z,35.21
2023-05-18T14:12:52.659Z,35.21
2023-05-18T14:15:19.711Z,35.14
2023-05-18T14:17:46.938Z,35.07
2023-05-18T14:20:23.419Z,35.04
2023-05-18T14:22:50.675Z,35.13
2023-05-18T14:25:17.932Z,35.26
2023-05-18T14:27:50.931Z,35.34
2023-05-18T14:30:18.182Z,35.30
2023-05-18T14:32:45.380Z,35.19
2023-05-18T14:35:13.089Z,35.01
2023-05-18T14:37:40.863Z,34.88
2023-05-18T14:40:09.002Z,34.71
2023-05-18T14:42:40.518Z,34.46
2023-05-18T14:45:10.183Z,34.13
2023-05-18T14:47:37.497Z,33.92
2023-05-18T14:50:05.726Z,33.82
2023-05-18T14:52:32.868Z,33.86
2023-05-18T14:55:00.218Z,33.87
2023-05-18T14:57:30.751Z,33.98
2023-05-18T14:59:58.515Z,34.06
2023-05-18T15:02:31.256Z,34.05
2023-05-18T15:04:58.557Z,33.98
2023-05-18T15:07:39.217Z,33.93
2023-05-18T15:10:09.750Z,33.86
2023-05-18T15:12:37.571Z,33.79
2023-05-18T15:15:14.179Z,33.75
2023-05-18T15:17:41.559Z,33.76
2023-05-18T15:20:09.515Z,33.85
2023-05-18T15:22:38.632Z,33.96
2023-05-18T15:25:07.657Z,34.05
2023-05-18T15:27:38.648Z,34.11
2023-05-18T15:30:11.742Z,34.14
2023-05-18T15:32:39.322Z,34.12
2023-05-18T15:35:07.660Z,34.03
2023-05-18T15:37:35.474Z,33.69
2023-05-18T15:40:03.027Z,33.40
2023-05-18T15:42:30.242Z,33.14
2023-05-18T15:44:57.856Z,32.90
2023-05-18T15:47:28.662Z,32.71
2023-05-18T15:49:57.766Z,32.42
2023-05-18T15:52:25.577Z,32.21
2023-05-18T15:54:52.732Z,32.01
2023-05-18T15:57:19.985Z,31.67
2023-05-18T15:59:47.330Z,31.20
2023-05-18T16:02:15.514Z,30.84
2023-05-18T16:04:42.909Z,30.52
2023-05-18T16:07:09.857Z,30.28
2023-05-18T16:09:36.766Z,30.11
2023-05-18T16:12:04.012Z,30.03
2023-05-18T16:14:31.450Z,29.85
2023-05-18T16:16:58.719Z,29.56
2023-05-18T16:19:32.563Z,29.15
2023-05-18T16:22:03.511Z,28.70
2023-05-18T16:24:33.946Z,28.24
2023-05-18T16:27:01.835Z,27.73
2023-05-18T16:29:29.131Z,27.26
2023-05-18T16:31:56.740Z,26.89
2023-05-18T16:34:23.978Z,26.54
2023-05-18T16:36:51.239Z,26.06
2023-05-18T16:39:18.503Z,25.56
2023-05-18T16:41:45.854Z,25.11
2023-05-18T16:44:12.799Z,24.76
2023-05-18T16:46:39.989Z,24.40
2023-05-18T16:49:07.410Z,24.02
2023-05-18T16:51:34.346Z,23.63
2023-05-18T16:54:01.356Z,23.28
2023-05-18T16:56:29.924Z,22.96
2023-05-18T16:58:56.864Z,22.70
2023-05-18T17:01:28.524Z,22.45
2023-05-18T17:03:56.225Z,22.23
2023-05-18T17:06:23.380Z,22.02
2023-05-18T17:08:57.758Z,21.82
2023-05-18T17:11:27.190Z,21.53
2023-05-18T17:13:54.693Z,21.22
2023-05-18T17:16:22.475Z,21.00
2023-05-18T17:18:49.611Z,20.77
2023-05-18T17:21:16.948Z,20.61
2023-05-18T17:23:43.993Z,20.52
2023-05-18T17:26:11.115Z,20.43
2023-05-18T17:28:38.135Z,20.34
2023-05-18T17:31:06.746Z,20.27
2023-05-18T17:33:33.834Z,20.12
2023-05-18T17:36:00.882Z,19.94
2023-05-18T17:38:28.177Z,19.78
2023-05-18T17:40:55.217Z,19.72
2023-05-18T17:43:22.149Z,19.67
2023-05-18T17:45:49.096Z,19.64
2023-05-18T17:48:16.319Z,19.57
2023-05-18T17:50:45.646Z,19.51
2023-05-18T17:53:12.827Z,19.48
2023-05-18T17:55:39.815Z,19.48
2023-05-18T17:58:06.870Z,19.49
2023-05-18T18:00:33.976Z,19.50
2023-05-18T18:03:01.856Z,19.53
2023-05-18T18:05:29.103Z,19.58
2023-05-18T18:07:57.873Z,19.65
2023-05-18T18:10:24.961Z,19.73
2023-05-18T18:12:54.071Z,19.77
2023-05-18T18:15:23.790Z,19.88
2023-05-18T18:21:07.660Z,20.03
2023-05-18T18:23:35.556Z,20.13
2023-05-18T18:26:03.751Z,20.24
2023-05-18T18:28:33.274Z,20.32
2023-05-18T18:31:00.530Z,20.36
2023-05-18T18:33:27.574Z,20.40
2023-05-18T18:35:55.702Z,20.44
2023-05-18T18:38:22.865Z,20.39
2023-05-18T18:40:50.544Z,20.33
2023-05-18T18:43:17.709Z,20.32
2023-05-18T18:45:44.966Z,20.32
2023-05-18T18:48:12.131Z,20.32
2023-05-18T18:50:39.229Z,20.31
2023-05-18T18:53:06.308Z,20.29
2023-05-18T18:55:33.609Z,20.29
2023-05-18T18:58:01.736Z,20.25
2023-05-18T19:00:30.053Z,20.25
2023-05-18T19:02:59.723Z,20.26
2023-05-18T19:05:27.321Z,20.26
2023-05-18T19:07:56.352Z,20.22
2023-05-18T19:10:23.623Z,20.16
2023-05-18T19:12:52.157Z,20.10
2023-05-18T19:15:21.682Z,20.06
2023-05-18T19:17:54.666Z,20.08
2023-05-18T19:20:21.975Z,20.09
2023-05-18T19:22:49.627Z,20.06
2023-05-18T19:25:16.882Z,19.99
2023-05-18T19:27:43.923Z,19.90
2023-05-18T19:30:13.585Z,19.76
2023-05-18T19:32:41.096Z,19.59
2023-05-18T19:35:08.370Z,19.44
2023-05-18T19:41:49.872Z,19.19
2023-05-18T19:44:17.064Z,19.05
2023-05-18T19:46:44.611Z,18.91
2023-05-18T19:49:11.896Z,18.77
2023-05-18T19:51:39.019Z,18.64
2023-05-18T19:54:06.058Z,18.51
2023-05-18T19:56:34.566Z,18.40
2023-05-18T19:59:01.802Z,18.32
2023-05-18T20:04:50.736Z,18.33
2023-05-18T20:07:18.314Z,18.32
2023-05-18T20:09:45.345Z,18.32
2023-05-18T20:12:12.502Z,18.34
2023-05-18T20:14:39.694Z,18.34
2023-05-18T20:17:06.808Z,18.32
2023-05-18T20:19:34.059Z,18.30
2023-05-18T20:22:01.103Z,18.28
2023-05-18T20:24:28.385Z,18.26
2023-05-18T20:26:55.538Z,18.24
2023-05-18T20:29:22.594Z,18.21
2023-05-18T20:31:49.765Z,18.18
2023-05-18T20:34:46.358Z,18.22
2023-05-18T20:37:16.345Z,18.27
2023-05-18T20:39:51.020Z,18.28
2023-05-18T20:42:22.190Z,18.28
2023-05-18T20:44:51.633Z,18.30
2023-05-18T20:47:21.554Z,18.32
2023-05-18T20:49:48.897Z,18.34
2023-05-18T20:52:16.079Z,18.35
2023-05-18T20:54:43.705Z,18.37
2023-05-18T20:57:10.771Z,18.41
2023-05-18T20:59:37.813Z,18.50
2023-05-18T21:02:05.195Z,18.60
2023-05-18T21:04:32.215Z,18.75
2023-05-18T21:06:59.366Z,18.93
2023-05-18T21:09:26.424Z,19.08
2023-05-18T21:11:53.452Z,19.17
2023-05-18T21:14:20.783Z,19.23
2023-05-18T21:16:47.917Z,19.27
2023-05-18T21:19:15.084Z,19.31
2023-05-18T21:21:43.435Z,19.34
2023-05-18T21:24:10.892Z,19.34
2023-05-18T21:26:37.870Z,19.34
2023-05-18T21:29:05.329Z,19.34
2023-05-18T21:31:32.467Z,19.32
2023-05-18T21:33:59.588Z,19.30
2023-05-18T21:36:36.033Z,19.25
2023-05-18T21:39:04.343Z,19.24
2023-05-18T21:41:31.905Z,19.26
2023-05-18T21:43:59.069Z,19.31
2023-05-18T21:46:26.198Z,19.37
2023-05-18T21:48:53.512Z,19.43
2023-05-18T21:51:20.657Z,19.45
2023-05-18T21:53:49.269Z,19.46
2023-05-18T21:56:17.015Z,19.47
2023-05-18T21:58:44.033Z,19.47
2023-05-18T22:01:11.219Z,19.47
2023-05-18T22:03:38.742Z,19.47
2023-05-18T22:06:05.899Z,19.46
2023-05-18T22:08:32.945Z,19.45
2023-05-18T22:11:00.239Z,19.42
2023-05-18T22:13:27.596Z,19.42
2023-05-18T22:15:54.589Z,19.43
2023-05-18T22:18:24.004Z,19.42
2023-05-18T22:20:51.154Z,19.43
2023-05-18T22:23:18.248Z,19.43
2023-05-18T22:25:46.020Z,19.43
2023-05-18T22:28:13.178Z,19.45
2023-05-18T22:30:40.219Z,19.46
2023-05-18T22:33:07.267Z,19.45
2023-05-18T22:35:37.033Z,19.44
2023-05-18T22:38:03.978Z,19.44
2023-05-18T22:40:31.545Z,19.44
2023-05-18T22:42:58.952Z,19.45
2023-05-18T22:45:26.020Z,19.47
2023-05-18T22:47:55.106Z,19.48
2023-05-18T22:50:22.195Z,19.47
2023-05-18T22:52:49.783Z,19.46
2023-05-18T22:55:16.927Z,19.45
2023-05-18T22:57:44.744Z,19.41
2023-05-18T23:00:14.255Z,19.40
2023-05-18T23:02:41.817Z,19.37
